Time;durP1;ratioP1;P1;durP2;ratioP2;P2;SDS_P1;SDS_P2;PMS_P1;PMS_P2;Temp;Humidity;BMP_temperature;BMP_pressure;BME280_temperature;BME280_humidity;BME280_pressure;Samples;Min_cycle;Max_cycle;Signal;HPM_P1;HPM_P2
2022/04/08 00:01:36;;;;;;;14.73;7.10;;;;;;;11.39;100.00;93635.94;5034655;28;20483;-84
2022/04/08 00:04:05;;;;;;;9.83;7.00;;;;;;;11.46;100.00;93644.81;5034821;28;20895;-84
2022/04/08 00:06:32;;;;;;;7.50;6.23;;;;;;;11.52;100.00;93627.53;5035069;28;20447;-84
2022/04/08 00:08:59;;;;;;;7.13;5.80;;;;;;;11.52;100.00;93632.81;5035205;28;20461;-84
2022/04/08 00:11:26;;;;;;;6.50;5.43;;;;;;;11.34;99.90;93636.44;5034618;28;20458;-84
2022/04/08 00:13:53;;;;;;;7.97;6.07;;;;;;;11.32;100.00;93648.09;5034114;28;20462;-84
2022/04/08 00:16:21;;;;;;;6.30;5.70;;;;;;;11.30;100.00;93642.22;5034568;28;20445;-84
2022/04/08 00:18:48;;;;;;;7.73;6.20;;;;;;;11.22;100.00;93650.06;5034935;28;20455;-84
2022/04/08 00:21:17;;;;;;;8.93;6.10;;;;;;;11.04;100.00;93653.69;5034469;28;20447;-84
2022/04/08 00:23:44;;;;;;;10.17;6.70;;;;;;;11.13;100.00;93655.31;5034482;28;20453;-84
2022/04/08 00:26:11;;;;;;;9.43;5.70;;;;;;;11.14;100.00;93656.97;5034528;28;20699;-84
2022/04/08 00:28:38;;;;;;;8.20;5.00;;;;;;;11.11;100.00;93652.03;5034579;28;20461;-84
2022/04/08 00:31:05;;;;;;;8.23;5.00;;;;;;;11.14;100.00;93656.97;5034263;28;20461;-84
2022/04/08 00:33:32;;;;;;;6.50;5.13;;;;;;;10.74;100.00;93664.81;5034337;28;20455;-85
2022/04/08 00:36:00;;;;;;;5.53;5.13;;;;;;;10.76;100.00;93668.09;5034402;28;20447;-84
2022/04/08 00:38:28;;;;;;;6.27;5.40;;;;;;;10.86;100.00;93664.31;5034211;28;20443;-84
2022/04/08 00:40:55;;;;;;;9.40;6.40;;;;;;;10.86;100.00;93674.00;5033970;28;20447;-84
2022/04/08 00:43:33;;;;;;;7.97;4.87;;;;;;;10.89;99.41;93676.28;5033971;28;20486;-84
2022/04/08 00:46:00;;;;;;;3.97;3.57;;;;;;;10.97;96.15;93671.03;5033979;28;20431;-84
2022/04/08 00:48:27;;;;;;;5.90;4.33;;;;;;;11.03;95.07;93669.59;5034234;28;20455;-84
2022/04/08 00:50:54;;;;;;;9.93;3.60;;;;;;;11.14;92.01;93664.84;5033925;28;20973;-86
2022/04/08 00:53:22;;;;;;;4.90;3.50;;;;;;;11.30;85.89;93678.97;5033991;28;20692;-84
2022/04/08 00:55:50;;;;;;;3.40;3.20;;;;;;;11.48;84.21;93676.97;5034032;28;20823;-84
2022/04/08 00:58:18;;;;;;;4.47;4.13;;;;;;;11.56;86.21;93676.13;5033559;28;20445;-85
2022/04/08 01:00:45;;;;;;;5.30;3.80;;;;;;;11.42;92.62;93657.44;5033883;28;20458;-85
2022/04/08 01:03:12;;;;;;;5.13;4.63;;;;;;;11.49;90.08;93671.56;5033442;28;20485;-85
2022/04/08 01:05:39;;;;;;;5.43;4.50;;;;;;;11.43;91.93;93658.28;5033726;28;20533;-85
2022/04/08 01:08:10;;;;;;;9.20;5.80;;;;;;;11.30;92.97;93657.97;5033626;28;20538;-85
2022/04/08 01:10:37;;;;;;;4.23;3.87;;;;;;;11.38;91.18;93664.03;5033523;28;20447;-85
2022/04/08 01:13:06;;;;;;;3.50;3.20;;;;;;;11.39;84.26;93664.84;5033682;28;20435;-86
2022/04/08 01:15:33;;;;;;;6.50;3.80;;;;;;;11.50;82.61;93677.63;5033484;28;20453;-84
2022/04/08 01:18:00;;;;;;;5.10;4.27;;;;;;;11.63;82.62;93674.50;4998781;28;20446;-84
2022/04/08 01:20:27;;;;;;;4.77;4.37;;;;;;;11.72;85.01;93665.63;4998825;28;20443;-85
2022/04/08 01:22:54;;;;;;;4.43;3.73;;;;;;;11.71;83.07;93674.50;5032969;28;20490;-84
2022/04/08 01:25:22;;;;;;;4.87;4.20;;;;;;;11.70;86.06;93667.59;5032806;28;20453;-85
2022/04/08 01:27:49;;;;;;;5.63;5.03;;;;;;;11.61;86.37;93693.06;4998759;28;20470;-84
2022/04/08 01:30:17;;;;;;;6.03;4.77;;;;;;;11.49;90.58;93686.50;5033144;28;20453;-84
2022/04/08 01:32:44;;;;;;;5.03;4.10;;;;;;;11.41;89.38;93686.50;5033340;28;20454;-85
2022/04/08 01:35:11;;;;;;;5.30;4.80;;;;;;;11.40;87.02;93692.75;5032812;28;20451;-85
2022/04/08 01:37:38;;;;;;;6.37;5.23;;;;;;;11.43;90.27;93692.41;5033007;28;20454;-85
2022/04/08 01:40:06;;;;;;;3.03;2.83;;;;;;;11.40;83.50;93700.63;5032638;28;20446;-86
2022/04/08 01:42:35;;;;;;;3.27;2.97;;;;;;;11.46;79.27;93702.59;5016520;28;20992;-86
2022/04/08 01:45:01;;;;;;;4.87;3.27;;;;;;;11.61;77.67;93690.44;5034306;28;20443;-85
2022/04/08 01:47:28;;;;;;;5.90;4.40;;;;;;;11.66;83.20;93688.13;5033935;28;20454;-83
2022/04/08 01:49:55;;;;;;;5.60;4.03;;;;;;;11.50;87.03;93680.25;5033799;28;20466;-83
2022/04/08 01:52:23;;;;;;;7.37;5.23;;;;;;;11.26;91.84;93680.25;5034041;28;20445;-82
2022/04/08 01:54:50;;;;;;;5.80;5.20;;;;;;;11.28;91.88;93686.19;5033647;28;20503;-82
2022/04/08 01:57:18;;;;;;;5.50;4.70;;;;;;;11.01;93.43;93677.63;5033829;28;20435;-82
2022/04/08 02:03:09;;;;;;;7.47;5.63;;;;;;;10.49;95.30;93685.72;5032616;28;21139;-82
2022/04/08 02:05:36;;;;;;;12.47;5.60;;;;;;;10.26;96.58;93687.25;5033877;28;20780;-83
2022/04/08 02:08:03;;;;;;;5.83;4.63;;;;;;;10.47;95.19;93695.56;5033512;28;20455;-82
2022/04/08 02:10:29;;;;;;;6.10;5.40;;;;;;;10.65;95.07;93705.09;5033819;28;20462;-82
2022/04/08 02:12:56;;;;;;;6.17;4.60;;;;;;;10.51;93.96;93691.63;4998818;28;20446;-83
2022/04/08 02:15:28;;;;;;;5.27;4.50;;;;;;;10.44;94.36;93692.44;5033342;28;20439;-81
2022/04/08 02:17:55;;;;;;;7.10;4.80;;;;;;;10.45;93.21;93692.25;5033541;28;20493;-82
2022/04/08 02:20:24;;;;;;;6.87;4.10;;;;;;;10.39;93.98;93695.50;5033121;28;20453;-82
2022/04/08 02:22:51;;;;;;;7.30;4.20;;;;;;;10.57;93.21;93697.22;5033409;28;20876;-82
2022/04/08 02:25:18;;;;;;;4.57;4.17;;;;;;;10.69;93.13;93714.28;5033206;28;20439;-82
2022/04/08 02:27:45;;;;;;;5.50;3.73;;;;;;;10.62;91.78;93708.03;5033321;28;20442;-82
2022/04/08 02:30:13;;;;;;;4.33;4.00;;;;;;;10.49;92.11;93704.06;5033207;28;20450;-82
2022/04/08 02:32:40;;;;;;;10.83;5.30;;;;;;;10.17;93.90;93704.72;5033271;28;20532;-80
2022/04/08 02:35:08;;;;;;;10.33;6.00;;;;;;;9.93;95.56;93707.22;5033443;28;20435;-83
2022/04/08 02:37:37;;;;;;;4.43;4.03;;;;;;;10.06;95.27;93723.34;5037479;28;20492;-81
2022/04/08 02:40:04;;;;;;;4.73;4.17;;;;;;;9.86;96.33;93722.75;5037422;28;20450;-81
2022/04/08 02:42:31;;;;;;;5.63;4.87;;;;;;;9.36;99.44;93713.88;5037432;28;20479;-82
2022/04/08 02:44:58;;;;;;;5.70;5.20;;;;;;;9.52;99.13;93721.84;5037259;28;20431;-82
2022/04/08 02:47:25;;;;;;;5.87;4.57;;;;;;;9.63;98.71;93722.44;5037259;28;20434;-81
2022/04/08 02:49:52;;;;;;;5.97;5.37;;;;;;;9.60;100.00;93733.22;5037714;28;20486;-82
2022/04/08 02:52:19;;;;;;;7.33;6.60;;;;;;;9.56;100.00;93741.53;5037133;28;20443;-84
2022/04/08 02:54:47;;;;;;;11.07;7.45;;;;;;;9.88;100.00;93736.50;5036272;28;20436;-81
2022/04/08 02:57:14;;;;;;;7.17;6.13;;;;;;;9.68;99.21;93735.06;5018579;28;20200;-83
2022/04/08 02:59:41;;;;;;;9.00;6.10;;;;;;;9.66;99.52;93746.66;5036829;28;20439;-82
2022/04/08 03:02:08;;;;;;;14.13;7.70;;;;;;;9.48;100.00;93747.50;5037113;28;20463;-85
2022/04/08 03:04:35;;;;;;;7.60;6.50;;;;;;;9.51;99.26;93754.22;5036770;28;20598;-83
2022/04/08 03:07:03;;;;;;;7.77;6.90;;;;;;;9.58;100.00;93755.28;5036585;28;20442;-83
2022/04/08 03:09:30;;;;;;;7.17;6.43;;;;;;;9.65;100.00;93782.50;5037211;28;20449;-81
2022/04/08 03:11:58;;;;;;;9.93;6.80;;;;;;;9.86;100.00;93769.91;5018781;28;20438;-81
2022/04/08 03:14:25;;;;;;;6.63;5.97;;;;;;;10.01;100.00;93771.97;5036798;28;20435;-79
2022/04/08 03:16:53;;;;;;;6.90;5.57;;;;;;;10.24;100.00;93767.88;5036881;28;20439;-83
2022/04/08 03:19:20;;;;;;;6.97;6.13;;;;;;;10.33;100.00;93774.78;5036711;28;20434;-82
2022/04/08 03:21:47;;;;;;;11.13;6.80;;;;;;;10.21;98.03;93778.69;5036366;28;20905;-83
2022/04/08 03:24:14;;;;;;;8.73;6.87;;;;;;;9.74;96.73;93786.00;5002039;28;21015;-83
2022/04/08 03:33:26;;;;;;;5.53;5.03;;;;;;;10.08;97.17;93810.50;5035420;28;20426;-82
2022/04/08 03:35:52;;;;;;;5.90;5.27;;;;;;;10.06;96.16;93812.44;5036025;28;20458;-83
2022/04/08 03:38:19;;;;;;;6.23;5.63;;;;;;;9.81;95.53;93808.81;5016394;28;20458;-82
2022/04/08 03:40:47;;;;;;;8.83;5.80;;;;;;;9.97;94.53;93823.84;5034838;28;20456;-83
2022/04/08 03:43:13;;;;;;;7.90;6.00;;;;;;;9.53;95.05;93807.28;5034768;28;20494;-83
2022/04/08 03:45:40;;;;;;;8.40;5.40;;;;;;;9.78;95.10;93831.88;5035050;28;20779;-82
2022/04/08 03:48:08;;;;;;;6.23;5.73;;;;;;;9.91;96.15;93840.19;5034235;28;20776;-82
2022/04/08 03:50:37;;;;;;;5.80;5.10;;;;;;;9.94;94.67;93845.13;5034637;28;20478;-82
2022/04/08 03:53:03;;;;;;;6.30;5.70;;;;;;;9.70;94.59;93842.31;5034733;28;20454;-82
2022/04/08 03:55:30;;;;;;;7.33;5.43;;;;;;;9.74;94.59;93841.84;5034847;28;20447;-81
2022/04/08 03:57:57;;;;;;;10.43;6.97;;;;;;;9.88;97.35;93830.84;5035106;28;20534;-81
2022/04/08 04:00:24;;;;;;;7.83;6.37;;;;;;;9.66;95.03;93854.06;4999663;28;20864;-81
2022/04/08 04:02:51;;;;;;;10.70;7.53;;;;;;;9.80;94.83;93862.19;5034675;28;20490;-82
2022/04/08 04:05:18;;;;;;;24.57;13.20;;;;;;;9.90;95.83;93865.56;5034545;28;20451;-82
2022/04/08 04:07:46;;;;;;;8.33;6.60;;;;;;;9.80;94.61;93856.13;5034243;28;20453;-81
2022/04/08 04:10:14;;;;;;;17.60;13.00;;;;;;;9.49;95.21;93866.16;5034717;28;20459;-81
2022/04/08 04:12:42;;;;;;;8.50;7.43;;;;;;;9.81;95.66;93860.41;5034793;28;20473;-82
2022/04/08 04:15:10;;;;;;;9.03;7.00;;;;;;;10.07;95.13;93877.00;5034649;28;20451;-83
2022/04/08 04:17:37;;;;;;;8.87;6.80;;;;;;;10.65;92.36;93878.25;5034751;28;20456;-82
2022/04/08 04:20:05;;;;;;;9.00;6.43;;;;;;;11.23;90.18;93885.41;5034482;28;20442;-82
2022/04/08 04:22:32;;;;;;;5.83;5.23;;;;;;;12.06;86.06;93899.41;5034345;28;20830;-83
2022/04/08 04:25:00;;;;;;;12.00;4.67;;;;;;;12.82;80.83;93909.56;5034205;28;20458;-82
2022/04/08 04:27:27;;;;;;;8.53;5.37;;;;;;;13.74;78.26;93912.56;5034310;28;20443;-82
2022/04/08 04:29:54;;;;;;;6.07;4.70;;;;;;;14.50;73.30;93914.41;5034352;28;20445;-83
2022/04/08 04:32:21;;;;;;;5.57;4.73;;;;;;;13.77;71.90;93920.13;5034272;28;20964;-83
2022/04/08 04:34:48;;;;;;;6.33;5.33;;;;;;;13.49;73.78;93927.66;5034521;28;20441;-82
2022/04/08 04:37:15;;;;;;;7.83;5.50;;;;;;;14.07;72.42;93923.75;5034237;28;21005;-83
2022/04/08 04:39:42;;;;;;;6.73;6.07;;;;;;;14.36;70.88;93918.59;4999474;28;20451;-83
2022/04/08 04:42:10;;;;;;;9.80;8.30;;;;;;;13.77;71.73;93912.22;5034135;28;20446;-83
2022/04/08 04:44:37;;;;;;;21.07;13.40;;;;;;;13.52;73.36;93914.97;5034003;28;20498;-83
2022/04/08 04:47:04;;;;;;;14.30;11.20;;;;;;;13.75;75.48;93930.03;5033889;28;20451;-83
2022/04/08 04:49:31;;;;;;;8.90;6.87;;;;;;;14.64;75.10;93920.69;5032976;28;20833;-83
2022/04/08 04:51:58;;;;;;;8.23;6.17;;;;;;;15.42;68.60;93939.56;5032016;28;20462;-81
2022/04/08 04:54:25;;;;;;;10.83;5.10;;;;;;;16.23;66.29;93939.56;5033580;28;20454;-81
2022/04/08 04:56:52;;;;;;;5.10;4.40;;;;;;;16.21;61.91;93952.16;5031288;28;20474;-80
2022/04/08 04:59:20;;;;;;;5.83;4.77;;;;;;;15.97;62.90;93967.38;5032602;28;20461;-82
2022/04/08 05:01:47;;;;;;;9.43;5.60;;;;;;;16.30;62.05;93970.38;5039354;28;20449;-83
2022/04/08 05:04:14;;;;;;;8.23;5.77;;;;;;;16.53;62.18;93970.22;5043424;28;20493;-82
2022/04/08 05:06:40;;;;;;;8.70;6.17;;;;;;;16.43;61.32;93974.97;5033628;28;20450;-82
2022/04/08 05:09:07;;;;;;;6.00;4.30;;;;;;;16.67;59.78;93981.78;5033524;28;20450;-82
2022/04/08 05:11:34;;;;;;;7.67;4.13;;;;;;;16.86;59.65;93988.28;5032670;28;20458;-83
2022/04/08 05:14:01;;;;;;;6.60;3.80;;;;;;;16.95;58.95;93987.13;5033304;28;20443;-82
2022/04/08 05:16:30;;;;;;;4.67;4.27;;;;;;;16.72;59.85;93988.13;5014264;28;20449;-82
2022/04/08 05:18:57;;;;;;;5.70;4.50;;;;;;;17.03;60.31;93984.34;5033544;28;20447;-84
2022/04/08 05:21:25;;;;;;;5.00;4.50;;;;;;;16.87;59.29;93990.75;5033900;28;20442;-84
2022/04/08 05:23:52;;;;;;;7.87;4.13;;;;;;;16.65;60.29;94000.47;5033311;28;20493;-83
2022/04/08 05:26:19;;;;;;;10.70;5.20;;;;;;;16.34;61.88;93995.47;5033486;28;20809;-83
2022/04/08 05:28:46;;;;;;;8.20;4.90;;;;;;;16.13;62.29;93999.91;5033261;28;20447;-85
2022/04/08 05:31:13;;;;;;;8.03;5.80;;;;;;;15.95;62.73;94006.41;5033488;28;20439;-83
2022/04/08 05:33:42;;;;;;;7.70;3.70;;;;;;;15.62;62.84;94015.75;5014274;28;20431;-84
2022/04/08 05:36:09;;;;;;;6.23;3.93;;;;;;;15.72;64.91;94011.81;5033096;28;20447;-82
2022/04/08 05:38:35;;;;;;;4.37;3.97;;;;;;;15.89;64.10;94014.25;5032962;28;20453;-83
2022/04/08 05:41:02;;;;;;;4.30;3.90;;;;;;;15.87;63.52;94005.69;4998208;28;20457;-83
2022/04/08 05:43:29;;;;;;;6.13;4.70;;;;;;;16.01;63.83;94004.84;5032776;28;20487;-84
2022/04/08 05:45:56;;;;;;;5.83;3.83;;;;;;;16.05;63.52;94006.94;5033049;28;20434;-83
2022/04/08 05:48:23;;;;;;;5.30;3.97;;;;;;;16.15;63.42;94011.13;4998076;28;20445;-84
2022/04/08 05:50:51;;;;;;;3.40;3.10;;;;;;;16.04;64.13;94001.84;5032963;28;20494;-83
2022/04/08 05:53:18;;;;;;;9.40;3.97;;;;;;;15.86;64.80;94018.09;5032958;28;20493;-83
2022/04/08 05:55:46;;;;;;;3.90;3.50;;;;;;;15.69;65.78;94021.94;5032640;28;20439;-83
2022/04/08 05:58:12;;;;;;;5.23;4.07;;;;;;;15.61;65.99;94022.84;5032668;28;20500;-83
2022/04/08 06:00:39;;;;;;;5.23;4.20;;;;;;;15.42;66.43;94023.34;4998168;28;20434;-83
2022/04/08 06:03:06;;;;;;;4.43;3.80;;;;;;;15.58;67.87;94015.25;5032662;28;20461;-84
2022/04/08 06:05:33;;;;;;;5.60;3.77;;;;;;;15.89;66.65;94027.47;5032848;28;20506;-83
2022/04/08 06:08:02;;;;;;;8.60;3.90;;;;;;;15.92;65.78;94033.25;5032495;28;20819;-82
2022/04/08 06:10:29;;;;;;;6.10;5.43;;;;;;;15.12;67.72;94041.78;4997453;28;20461;-83
2022/04/08 06:12:56;;;;;;;9.83;5.53;;;;;;;15.42;68.69;94044.50;5032376;28;20455;-84
2022/04/08 06:15:23;;;;;;;5.40;3.17;;;;;;;15.50;67.01;94047.06;5014242;28;20457;-83
2022/04/08 06:17:50;;;;;;;12.33;4.57;;;;;;;15.68;67.76;94039.63;5032632;28;20462;-83
2022/04/08 06:20:20;;;;;;;6.40;3.80;;;;;;;16.11;66.37;94027.38;5032622;28;20457;-83
2022/04/08 06:22:48;;;;;;;5.10;3.47;;;;;;;15.96;65.32;94016.00;5014147;28;20451;-82
2022/04/08 06:25:18;;;;;;;3.53;3.23;;;;;;;16.25;65.26;94022.25;5032233;28;20485;-83
2022/04/08 06:27:45;;;;;;;9.17;6.40;;;;;;;16.68;65.15;94041.69;5032313;28;20455;-81
2022/04/08 06:30:14;;;;;;;8.70;5.00;;;;;;;17.02;61.68;94043.66;5032417;28;20453;-83
2022/04/08 06:32:42;;;;;;;3.50;3.20;;;;;;;16.67;62.90;94022.34;5032326;28;20508;-83
2022/04/08 06:35:10;;;;;;;6.57;4.10;;;;;;;16.90;62.35;94039.88;5032284;28;20980;-83
2022/04/08 06:37:37;;;;;;;4.80;3.50;;;;;;;17.09;60.92;94044.56;5032176;28;20852;-84
2022/04/08 06:40:05;;;;;;;9.90;4.00;;;;;;;17.52;60.09;94041.84;5032113;28;20462;-83
2022/04/08 06:42:34;;;;;;;12.93;4.40;;;;;;;17.72;59.97;94045.47;5032312;28;20533;-83
2022/04/08 06:45:00;;;;;;;6.90;3.30;;;;;;;16.30;64.00;94041.03;5032117;28;20483;-84
2022/04/08 06:47:28;;;;;;;10.67;4.07;;;;;;;16.24;63.94;94047.09;5032432;28;20930;-83
2022/04/08 06:49:54;;;;;;;9.87;3.80;;;;;;;16.47;64.70;94039.81;5032128;28;20475;-83
2022/04/08 06:52:21;;;;;;;4.13;3.20;;;;;;;16.75;63.52;94044.41;5032217;28;20442;-84
2022/04/08 06:54:48;;;;;;;9.00;4.13;;;;;;;16.64;62.49;94051.00;5032219;28;20785;-84
2022/04/08 06:57:15;;;;;;;6.27;3.30;;;;;;;16.96;61.60;94058.50;5032389;28;20480;-84
2022/04/08 06:59:44;;;;;;;8.00;3.70;;;;;;;17.18;62.23;94059.31;5032071;28;20478;-83
2022/04/08 07:02:11;;;;;;;5.30;4.17;;;;;;;17.50;61.65;94055.28;5032244;28;20944;-82
2022/04/08 07:04:38;;;;;;;5.53;3.47;;;;;;;17.29;60.45;94042.88;5031679;28;20487;-84
2022/04/08 07:07:05;;;;;;;7.10;3.40;;;;;;;17.22;61.36;94041.19;5032284;28;20446;-84
2022/04/08 07:09:33;;;;;;;4.73;3.50;;;;;;;16.88;60.61;94057.81;5013409;28;20442;-84
2022/04/08 07:12:01;;;;;;;4.40;3.20;;;;;;;17.07;60.78;94059.84;5031939;28;20481;-84
2022/04/08 07:14:28;;;;;;;7.13;3.50;;;;;;;17.01;60.18;94058.75;5031756;28;20485;-84
2022/04/08 07:16:56;;;;;;;3.47;3.00;;;;;;;16.95;60.73;94051.56;5031868;28;20505;-84
2022/04/08 07:19:23;;;;;;;4.93;3.10;;;;;;;17.01;61.43;94063.22;5031857;28;20447;-84
2022/04/08 07:21:50;;;;;;;5.50;3.27;;;;;;;17.37;61.93;94067.66;5032864;28;20458;-84
2022/04/08 07:24:16;;;;;;;3.13;2.83;;;;;;;17.50;59.88;94071.22;5035575;28;20486;-84
2022/04/08 07:26:43;;;;;;;4.80;2.97;;;;;;;17.35;59.69;94070.50;5035702;28;20438;-84
2022/04/08 07:29:10;;;;;;;3.90;3.53;;;;;;;17.02;60.99;94073.63;5035561;28;20458;-84
2022/04/08 07:31:37;;;;;;;3.90;2.70;;;;;;;17.22;60.76;94073.81;5035990;28;20450;-84
2022/04/08 07:34:06;;;;;;;3.90;2.50;;;;;;;17.29;60.22;94084.50;5037221;28;20829;-84
2022/04/08 07:36:33;;;;;;;4.43;2.60;;;;;;;17.42;60.25;94081.16;5000751;28;20847;-84
2022/04/08 07:38:59;;;;;;;4.10;2.80;;;;;;;17.06;60.31;94083.84;5035796;28;20801;-84
2022/04/08 07:41:26;;;;;;;4.53;2.90;;;;;;;17.18;60.73;94088.47;5035224;28;20446;-84
2022/04/08 07:43:55;;;;;;;7.80;2.47;;;;;;;17.15;60.72;94083.56;5035616;28;20474;-84
2022/04/08 07:46:22;;;;;;;3.63;2.50;;;;;;;17.55;59.81;94062.66;5035098;28;20437;-84
2022/04/08 07:48:49;;;;;;;5.30;3.20;;;;;;;17.81;59.97;94062.88;5016411;28;20457;-84
2022/04/08 07:51:18;;;;;;;5.00;2.70;;;;;;;17.93;57.26;94064.00;5035380;28;20527;-85
2022/04/08 07:53:44;;;;;;;2.90;2.70;;;;;;;18.47;53.86;94078.34;5035117;28;20449;-84
2022/04/08 07:56:11;;;;;;;9.10;3.10;;;;;;;19.02;51.48;94085.31;5016381;28;20484;-82
2022/04/08 07:58:38;;;;;;;7.30;2.50;;;;;;;19.63;51.28;94069.22;5035212;28;20828;-83
2022/04/08 08:01:05;;;;;;;9.43;3.43;;;;;;;20.01;47.27;94073.91;5035235;28;20447;-85
2022/04/08 08:03:34;;;;;;;4.13;3.53;;;;;;;20.21;46.27;94072.00;5034931;28;20450;-83
2022/04/08 08:06:03;;;;;;;6.27;3.63;;;;;;;20.37;46.77;94076.91;5035052;28;20439;-83
2022/04/08 08:08:31;;;;;;;7.97;3.20;;;;;;;20.36;41.50;94056.59;5034614;28;20446;-84
2022/04/08 08:10:58;;;;;;;2.93;2.73;;;;;;;20.31;39.91;94052.94;5034652;28;20474;-84
2022/04/08 08:13:25;;;;;;;5.57;2.90;;;;;;;20.41;44.72;94067.47;5034620;28;20477;-85
2022/04/08 08:15:52;;;;;;;3.80;3.37;;;;;;;20.37;42.17;94066.25;5034584;28;20449;-85
2022/04/08 08:18:21;;;;;;;5.80;3.80;;;;;;;20.50;42.13;94069.91;5034374;28;20945;-84
2022/04/08 08:20:49;;;;;;;2.57;2.20;;;;;;;20.46;41.19;94066.84;5034655;28;20545;-83
2022/04/08 08:23:16;;;;;;;6.70;3.27;;;;;;;20.41;42.76;94072.00;5034469;28;20534;-84
2022/04/08 08:25:45;;;;;;;8.30;4.03;;;;;;;20.46;41.42;94069.50;5034354;28;20512;-85
2022/04/08 08:28:13;;;;;;;6.33;3.87;;;;;;;20.17;38.81;94060.13;5034410;28;20439;-84
2022/04/08 08:30:39;;;;;;;5.43;3.30;;;;;;;20.50;40.19;94064.56;5000038;28;21000;-84
2022/04/08 08:33:07;;;;;;;5.70;3.33;;;;;;;20.74;39.87;94071.84;5034299;28;20446;-84
2022/04/08 08:35:34;;;;;;;5.00;2.67;;;;;;;20.76;40.85;94080.47;5034416;28;20476;-83
2022/04/08 08:38:01;;;;;;;3.67;2.50;;;;;;;20.83;39.00;94064.44;5034284;28;20450;-84
2022/04/08 08:40:31;;;;;;;3.30;2.87;;;;;;;20.60;38.61;94067.63;5034337;28;20480;-85
2022/04/08 08:43:00;;;;;;;3.30;2.80;;;;;;;20.43;38.98;94075.25;5033795;28;20909;-84
2022/04/08 08:45:32;;;;;;;2.47;2.27;;;;;;;20.24;38.47;94076.94;5034242;28;20585;-85
2022/04/08 08:48:01;;;;;;;6.30;2.50;;;;;;;20.19;39.81;94068.72;5033924;28;20438;-84
2022/04/08 08:50:29;;;;;;;6.33;4.47;;;;;;;20.21;39.24;94071.19;5034166;28;20543;-85
2022/04/08 08:52:57;;;;;;;6.27;2.57;;;;;;;20.00;39.38;94075.75;5033849;28;20450;-85
2022/04/08 08:55:24;;;;;;;3.53;2.30;;;;;;;20.03;40.44;94074.53;5033909;28;20475;-84
2022/04/08 08:57:52;;;;;;;3.00;2.80;;;;;;;20.09;40.04;94068.34;5034145;28;20453;-85
2022/04/08 09:00:23;;;;;;;5.87;2.57;;;;;;;19.79;40.06;94071.47;5033568;28;20545;-84
2022/04/08 09:02:51;;;;;;;2.73;2.10;;;;;;;19.84;41.91;94070.03;5033772;28;20934;-84
2022/04/08 09:05:20;;;;;;;5.47;2.73;;;;;;;19.73;39.94;94074.16;5033799;28;20833;-84
2022/04/08 09:07:55;;;;;;;3.50;2.93;;;;;;;19.83;39.91;94074.53;5033309;28;20809;-84
2022/04/08 09:10:27;;;;;;;2.73;2.53;;;;;;;19.90;40.71;94077.19;5033695;28;20798;-83
2022/04/08 09:12:54;;;;;;;4.13;3.73;;;;;;;19.87;39.74;94077.59;5033734;28;20960;-84
2022/04/08 09:15:23;;;;;;;3.33;3.00;;;;;;;19.83;40.38;94079.06;5033450;28;20892;-83
2022/04/08 09:17:50;;;;;;;5.43;2.70;;;;;;;19.88;40.00;94080.06;5015013;28;20505;-84
2022/04/08 09:20:18;;;;;;;2.57;2.30;;;;;;;19.89;40.57;94070.22;5033491;28;20461;-84
2022/04/08 09:22:55;;;;;;;3.23;2.43;;;;;;;19.96;40.62;94077.22;5033234;28;20929;-84
2022/04/08 09:25:25;;;;;;;2.17;1.97;;;;;;;19.90;40.47;94066.53;5033342;28;20543;-84
2022/04/08 09:27:55;;;;;;;4.63;2.50;;;;;;;19.63;40.08;94063.91;5033458;28;20443;-83
2022/04/08 09:30:23;;;;;;;3.10;2.80;;;;;;;19.64;40.64;94070.84;5033176;28;20446;-83
2022/04/08 09:32:50;;;;;;;8.63;3.37;;;;;;;19.84;41.46;94060.19;5033102;28;20458;-84
2022/04/08 09:35:19;;;;;;;5.20;4.10;;;;;;;19.90;40.42;94063.88;5033124;28;20435;-83
2022/04/08 09:38:01;;;;;;;3.57;2.63;;;;;;;19.88;40.68;94076.59;5032953;28;20446;-84
2022/04/08 09:40:36;;;;;;;2.47;2.27;;;;;;;19.98;40.39;94071.66;5033060;28;20786;-84
2022/04/08 09:43:03;;;;;;;3.70;2.37;;;;;;;20.07;41.12;94075.75;5014628;28;21000;-84
2022/04/08 09:45:32;;;;;;;5.70;2.20;;;;;;;20.18;40.51;94066.28;5032709;28;20544;-84
2022/04/08 09:47:59;;;;;;;11.70;2.70;;;;;;;20.30;39.45;94065.44;5014662;28;20454;-83
2022/04/08 09:50:26;;;;;;;2.73;2.40;;;;;;;20.49;40.53;94071.75;5032728;28;21047;-83
2022/04/08 09:52:53;;;;;;;2.50;2.23;;;;;;;20.61;39.00;94071.94;5032942;28;20446;-84
2022/04/08 09:55:23;;;;;;;5.83;3.27;;;;;;;20.67;40.25;94058.56;5032712;28;20450;-84
2022/04/08 09:57:55;;;;;;;3.20;2.23;;;;;;;20.80;38.79;94071.00;5032991;28;20447;-83
2022/04/08 10:00:23;;;;;;;2.20;2.00;;;;;;;20.90;39.56;94068.72;5033066;28;20450;-83
2022/04/08 10:02:54;;;;;;;4.73;2.90;;;;;;;20.88;40.48;94072.63;4998309;28;20446;-83
2022/04/08 10:05:23;;;;;;;4.43;2.93;;;;;;;20.92;40.91;94068.50;5014001;28;20492;-84
2022/04/08 10:07:53;;;;;;;3.53;3.20;;;;;;;20.92;40.91;94069.31;5032723;28;20443;-83
2022/04/08 10:10:24;;;;;;;2.83;2.50;;;;;;;20.85;41.91;94068.53;5032966;28;20811;-83
2022/04/08 10:13:25;;;;;;;3.27;2.50;;;;;;;20.81;40.87;94066.47;5032578;28;20450;-83
2022/04/08 10:16:02;;;;;;;3.13;2.60;;;;;;;20.82;43.70;94060.97;4952489;29;20460;-83
2022/04/08 10:18:36;;;;;;;3.70;2.80;;;;;;;20.59;41.31;94060.66;4952059;29;20450;-84
2022/04/08 10:21:04;;;;;;;5.53;3.67;;;;;;;20.56;41.86;94058.41;4952193;29;20458;-83
2022/04/08 10:23:38;;;;;;;2.97;2.67;;;;;;;20.38;40.70;94057.22;4952100;29;20983;-83
2022/04/08 10:26:08;;;;;;;2.60;2.40;;;;;;;20.38;41.08;94059.06;4951894;29;20489;-83
2022/04/08 10:28:36;;;;;;;3.83;3.07;;;;;;;20.26;42.51;94061.56;4952096;29;20447;-83
2022/04/08 10:31:14;;;;;;;3.50;2.43;;;;;;;20.21;42.32;94057.88;4952149;29;20427;-83
2022/04/08 10:33:49;;;;;;;2.73;2.50;;;;;;;20.13;42.77;94055.44;4952127;29;20434;-83
2022/04/08 10:36:17;;;;;;;4.13;3.10;;;;;;;20.24;43.63;94052.97;4952093;29;20450;-83
2022/04/08 10:38:44;;;;;;;2.90;2.70;;;;;;;20.35;42.99;94054.97;4952066;29;20957;-84
2022/04/08 10:41:11;;;;;;;5.10;2.50;;;;;;;20.28;41.13;94056.03;4951900;29;20450;-85
2022/04/08 10:43:45;;;;;;;5.13;2.90;;;;;;;20.23;42.56;94053.16;4952081;29;20442;-84
2022/04/08 10:46:12;;;;;;;4.90;2.73;;;;;;;20.16;42.91;94055.84;4952129;29;20492;-83
2022/04/08 10:48:40;;;;;;;2.70;2.50;;;;;;;20.24;41.94;94044.13;4952055;29;20453;-84
2022/04/08 10:51:11;;;;;;;4.80;2.27;;;;;;;20.41;42.99;94048.00;4951925;29;20949;-83
2022/04/08 10:53:41;;;;;;;4.07;3.67;;;;;;;20.61;42.18;94050.59;5030614;28;20453;-84
2022/04/08 10:56:12;;;;;;;4.60;2.57;;;;;;;20.47;44.72;94043.69;5032154;28;20439;-83
2022/04/08 10:58:43;;;;;;;6.53;2.60;;;;;;;20.51;44.66;94048.38;5036257;28;20446;-84
2022/04/08 11:01:15;;;;;;;7.70;3.07;;;;;;;20.34;43.96;94034.69;5036029;28;20438;-84
2022/04/08 11:03:46;;;;;;;7.87;2.80;;;;;;;20.22;41.87;94023.03;5036243;28;20922;-85
2022/04/08 11:06:16;;;;;;;5.67;3.20;;;;;;;20.34;43.81;94024.03;5035867;28;20577;-84
2022/04/08 11:08:43;;;;;;;2.97;2.67;;;;;;;20.39;42.48;94031.38;5035862;28;20516;-84
2022/04/08 11:11:10;;;;;;;5.43;3.57;;;;;;;20.53;44.01;94030.34;5035817;28;20458;-84
2022/04/08 11:13:40;;;;;;;5.77;2.50;;;;;;;20.64;42.45;94042.19;5035761;28;20950;-85
2022/04/08 11:16:07;;;;;;;2.93;2.50;;;;;;;20.51;42.73;94036.88;5036032;28;20927;-84
2022/04/08 11:18:34;;;;;;;3.30;3.00;;;;;;;20.57;42.91;94028.06;5035775;28;20439;-84
2022/04/08 11:21:01;;;;;;;2.50;2.30;;;;;;;20.57;42.67;94028.06;5035854;28;20809;-83
2022/04/08 11:23:33;;;;;;;3.70;2.00;;;;;;;20.57;42.05;94030.72;5035862;28;20909;-83
2022/04/08 11:26:00;;;;;;;3.37;2.40;;;;;;;20.57;41.10;94022.75;5035646;28;20482;-84
2022/04/08 11:28:27;;;;;;;3.40;2.37;;;;;;;20.71;43.09;94022.44;5035354;28;20446;-84
2022/04/08 11:30:56;;;;;;;7.47;3.97;;;;;;;20.76;41.58;94021.78;5035291;28;20454;-84
2022/04/08 11:33:23;;;;;;;6.37;3.03;;;;;;;20.87;41.95;94028.31;5035411;28;20442;-84
2022/04/08 11:35:56;;;;;;;2.50;2.30;;;;;;;20.98;42.25;94020.44;5035312;28;20449;-84
2022/04/08 11:38:24;;;;;;;3.10;2.23;;;;;;;20.97;41.78;94023.31;5035267;28;20865;-85
2022/04/08 11:40:53;;;;;;;5.73;2.60;;;;;;;21.00;42.06;94033.56;5035100;28;20470;-84
2022/04/08 11:43:21;;;;;;;2.33;2.13;;;;;;;20.87;41.48;94026.47;5035452;28;20790;-83
2022/04/08 11:45:49;;;;;;;2.73;2.53;;;;;;;20.51;41.61;94023.56;5035087;28;21019;-84